createdAt,value
2023-03-07T00:00:12.641Z,98955.50
2023-03-07T00:01:41.275Z,98962.38
2023-03-07T00:02:43.488Z,98961.53
2023-03-07T00:03:45.833Z,98954.81
2023-03-07T00:05:50.274Z,98965.44
2023-03-07T00:06:52.521Z,98960.00
2023-03-07T00:07:54.742Z,98954.31
2023-03-07T00:09:00.437Z,98960.63
2023-03-07T00:10:02.614Z,98956.84
2023-03-07T00:11:07.615Z,98953.88
2023-03-07T00:12:10.589Z,98955.53
2023-03-07T00:13:12.801Z,98952.81
2023-03-07T00:14:15.267Z,98956.13
2023-03-07T00:15:19.171Z,98944.19
2023-03-07T00:16:23.692Z,98948.56
2023-03-07T00:17:26.038Z,98953.78
2023-03-07T00:18:28.468Z,98957.31
2023-03-07T00:19:30.657Z,98952.72
2023-03-07T00:20:32.919Z,98948.94
2023-03-07T00:21:35.148Z,98947.03
2023-03-07T00:22:37.947Z,98953.09
2023-03-07T00:23:42.592Z,98951.19
2023-03-07T00:24:44.799Z,98947.41
2023-03-07T00:25:56.742Z,98951.53
2023-03-07T00:26:58.954Z,98945.50
2023-03-07T00:28:01.179Z,98942.31
2023-03-07T00:29:03.498Z,98955.69
2023-03-07T00:30:10.306Z,98952.72
2023-03-07T00:31:13.313Z,98948.09
2023-03-07T00:32:15.510Z,98941.59
2023-03-07T00:33:19.188Z,98946.00
2023-03-07T00:34:21.729Z,98944.09
2023-03-07T00:35:23.847Z,98940.31
2023-03-07T00:36:26.305Z,98941.13
2023-03-07T00:37:30.301Z,98941.72
2023-03-07T00:38:32.864Z,98942.53
2023-03-07T00:39:37.948Z,98936.28
2023-03-07T00:40:40.128Z,98937.09
2023-03-07T00:41:42.478Z,98937.94
2023-03-07T00:42:44.743Z,98933.31
2023-03-07T00:43:47.850Z,98935.00
2023-03-07T00:44:50.062Z,98932.25
2023-03-07T00:45:52.682Z,98926.59
2023-03-07T00:46:54.874Z,98929.31
2023-03-07T00:47:57.580Z,98930.16
2023-03-07T00:48:59.772Z,98923.63
2023-03-07T00:50:02.316Z,98924.47
2023-03-07T00:51:07.176Z,98919.03
2023-03-07T00:52:09.351Z,98921.50
2023-03-07T00:53:11.547Z,98916.06
2023-03-07T00:54:14.482Z,98916.88
2023-03-07T00:55:16.723Z,98916.66
2023-03-07T00:56:21.351Z,98905.78
2023-03-07T00:57:24.708Z,98919.16
2023-03-07T00:58:28.668Z,98910.13
2023-03-07T00:59:30.989Z,98910.97
2023-03-07T01:00:33.462Z,98909.06
2023-03-07T01:01:35.971Z,98909.69
2023-03-07T01:02:38.336Z,98906.34
2023-03-07T01:03:42.397Z,98908.84
2023-03-07T01:04:44.643Z,98908.84
2023-03-07T01:05:46.928Z,98908.84
2023-03-07T01:06:50.630Z,98906.09
2023-03-07T01:07:52.800Z,98905.06
2023-03-07T01:08:59.267Z,98900.44
2023-03-07T01:10:01.705Z,98898.53
2023-03-07T01:11:05.708Z,98902.31
2023-03-07T01:12:08.435Z,98894.16
2023-03-07T01:13:11.914Z,98892.28
2023-03-07T01:14:14.112Z,98890.38
2023-03-07T01:15:16.390Z,98898.31
2023-03-07T01:16:21.959Z,98892.03
2023-03-07T01:17:24.164Z,98888.47
2023-03-07T01:18:26.440Z,98881.16
2023-03-07T01:19:28.799Z,98880.31
2023-03-07T01:20:35.155Z,98882.22
2023-03-07T01:21:40.068Z,98886.59
2023-03-07T01:22:42.348Z,98881.16
2023-03-07T01:23:47.685Z,98881.97
2023-03-07T01:24:49.877Z,98881.16
2023-03-07T01:25:52.112Z,98881.16
2023-03-07T01:26:54.645Z,98879.50
2023-03-07T01:27:58.872Z,98878.44
2023-03-07T01:29:06.008Z,98874.88
2023-03-07T01:30:11.119Z,98868.34
2023-03-07T01:31:14.454Z,98867.53
2023-03-07T01:32:18.687Z,98867.53
2023-03-07T01:33:21.022Z,98862.09
2023-03-07T01:34:23.359Z,98864.81
2023-03-07T01:35:32.596Z,98862.09
2023-03-07T01:36:36.185Z,98862.09
2023-03-07T01:37:39.634Z,98852.28
2023-03-07T01:38:43.455Z,98857.47
2023-03-07T01:39:46.770Z,98847.63
2023-03-07T01:40:52.128Z,98847.63
2023-03-07T01:41:55.104Z,98846.00
2023-03-07T01:43:23.390Z,98839.72
2023-03-07T01:44:29.105Z,98842.44
2023-03-07T01:45:35.064Z,98833.47
2023-03-07T01:46:44.772Z,98835.13
2023-03-07T01:47:47.775Z,98830.97
2023-03-07T01:48:56.160Z,98830.75
2023-03-07T01:50:02.290Z,98832.63
2023-03-07T01:51:07.058Z,98828.25
2023-03-07T01:52:20.891Z,98825.53
2023-03-07T01:53:26.609Z,98819.25
2023-03-07T01:54:30.988Z,98818.44
2023-03-07T01:55:34.830Z,98819.50
2023-03-07T01:56:47.573Z,98818.69
2023-03-07T01:57:52.050Z,98815.97
2023-03-07T01:58:55.479Z,98823.03
2023-03-07T02:00:00.509Z,98809.66
2023-03-07T02:01:02.991Z,98809.66
2023-03-07T02:02:13.905Z,98804.22
2023-03-07T02:03:30.465Z,98806.13
2023-03-07T02:04:55.099Z,98810.72
2023-03-07T02:06:01.532Z,98813.44
2023-03-07T02:07:04.061Z,98805.53
2023-03-07T02:08:10.540Z,98806.38
2023-03-07T02:09:18.697Z,98806.38
2023-03-07T02:10:24.912Z,98805.53
2023-03-07T02:11:27.201Z,98803.66
2023-03-07T02:12:29.544Z,98805.28
2023-03-07T02:13:31.921Z,98802.81
2023-03-07T02:14:34.377Z,98800.09
2023-03-07T02:15:37.697Z,98805.53
2023-03-07T02:16:40.286Z,98800.94
2023-03-07T02:17:44.842Z,98800.09
2023-03-07T02:18:52.206Z,98793.81
2023-03-07T02:20:01.245Z,98798.41
2023-03-07T02:21:19.462Z,98791.09
2023-03-07T02:22:23.079Z,98791.09
2023-03-07T02:23:38.076Z,98787.53
2023-03-07T02:24:56.212Z,98785.91
2023-03-07T02:26:03.674Z,98785.91
2023-03-07T02:27:06.335Z,98783.19
2023-03-07T02:28:12.738Z,98785.66
2023-03-07T02:29:15.798Z,98780.22
2023-03-07T02:30:20.496Z,98781.28
2023-03-07T02:31:25.074Z,98785.91
2023-03-07T02:32:27.361Z,98790.25
2023-03-07T02:33:30.267Z,98779.38
2023-03-07T02:34:37.043Z,98778.56
2023-03-07T02:35:45.215Z,98773.94
2023-03-07T02:36:50.126Z,98780.22
2023-03-07T02:37:59.573Z,98776.44
2023-03-07T02:39:07.015Z,98779.16
2023-03-07T02:40:13.184Z,98775.59
2023-03-07T02:41:19.587Z,98777.25
2023-03-07T02:42:25.790Z,98772.63
2023-03-07T02:43:37.234Z,98765.31
2023-03-07T02:44:39.933Z,98771.56
2023-03-07T02:45:42.167Z,98770.75
2023-03-07T02:46:44.453Z,98769.69
2023-03-07T02:47:46.966Z,98762.34
2023-03-07T02:48:52.959Z,98762.09
2023-03-07T02:49:55.779Z,98759.38
2023-03-07T02:50:58.042Z,98758.56
2023-03-07T02:52:00.835Z,98759.97
2023-03-07T02:53:04.570Z,98759.13
2023-03-07T02:54:08.490Z,98752.63
2023-03-07T02:55:11.241Z,98752.63
2023-03-07T02:56:18.296Z,98746.13
2023-03-07T02:57:20.719Z,98749.66
2023-03-07T02:58:23.184Z,98743.97
2023-03-07T02:59:25.321Z,98742.31
2023-03-07T03:00:27.849Z,98738.50
2023-03-07T03:01:31.884Z,98734.72
2023-03-07T03:02:35.388Z,98735.56
2023-03-07T03:03:37.540Z,98734.72
2023-03-07T03:04:40.820Z,98730.94
2023-03-07T03:05:44.478Z,98734.25
2023-03-07T03:06:46.765Z,98722.78
2023-03-07T03:07:50.134Z,98725.25
2023-03-07T03:08:52.308Z,98726.09
2023-03-07T03:09:54.806Z,98719.81
2023-03-07T03:10:57.256Z,98725.00
2023-03-07T03:12:01.345Z,98724.19
2023-03-07T03:13:06.336Z,98722.28
2023-03-07T03:14:08.768Z,98716.28
2023-03-07T03:15:11.778Z,98712.50
2023-03-07T03:16:14.458Z,98710.56
2023-03-07T03:17:18.280Z,98711.66
2023-03-07T03:18:20.631Z,98712.25
2023-03-07T03:19:23.850Z,98716.84
2023-03-07T03:20:27.272Z,98707.84
2023-03-07T03:21:31.565Z,98708.66
2023-03-07T03:22:35.257Z,98713.31
2023-03-07T03:23:40.918Z,98708.66
2023-03-07T03:24:44.563Z,98707.84
2023-03-07T03:26:07.691Z,98708.66
2023-03-07T03:27:10.572Z,98711.66
2023-03-07T03:28:15.472Z,98709.75
2023-03-07T03:29:17.759Z,98707.03
2023-03-07T03:30:20.658Z,98703.47
2023-03-07T03:31:22.879Z,98701.81
2023-03-07T03:32:25.320Z,98702.66
2023-03-07T03:33:31.720Z,98699.94
2023-03-07T03:34:34.150Z,98701.00
2023-03-07T03:35:39.796Z,98699.94
2023-03-07T03:36:41.952Z,98691.19
2023-03-07T03:37:45.356Z,98693.91
2023-03-07T03:38:47.662Z,98691.19
2023-03-07T03:39:50.865Z,98693.09
2023-03-07T03:40:53.554Z,98692.25
2023-03-07T03:41:57.163Z,98695.81
2023-03-07T03:42:59.351Z,98689.53
2023-03-07T03:44:03.892Z,98692.25
2023-03-07T03:45:07.838Z,98689.53
2023-03-07T03:46:10.253Z,98687.63
2023-03-07T03:47:13.378Z,98687.88
2023-03-07T03:48:15.642Z,98689.75
2023-03-07T03:49:20.007Z,98683.50
2023-03-07T03:50:25.114Z,98687.03
2023-03-07T03:51:28.777Z,98678.88
2023-03-07T03:52:31.568Z,98678.06
2023-03-07T03:53:36.034Z,98676.16
2023-03-07T03:54:38.351Z,98679.72
2023-03-07T03:55:40.509Z,98675.91
2023-03-07T03:56:44.543Z,98673.44
2023-03-07T03:57:47.013Z,98673.44
2023-03-07T03:58:51.740Z,98674.53
2023-03-07T03:59:55.698Z,98673.44
2023-03-07T04:00:58.391Z,98669.91
2023-03-07T04:02:03.768Z,98668.00
2023-03-07T04:03:07.096Z,98670.72
2023-03-07T04:04:09.398Z,98671.56
2023-03-07T04:05:13.180Z,98670.72
2023-03-07T04:06:19.169Z,98663.38
2023-03-07T04:07:24.579Z,98659.81
2023-03-07T04:08:26.914Z,98659.00
2023-03-07T04:09:29.299Z,98655.22
2023-03-07T04:10:31.510Z,98654.38
2023-03-07T04:11:35.619Z,98656.03
2023-03-07T04:12:37.808Z,98662.28
2023-03-07T04:13:41.361Z,98654.13
2023-03-07T04:14:43.625Z,98651.66
2023-03-07T04:15:45.894Z,98643.25
2023-03-07T04:16:48.162Z,98638.66
2023-03-07T04:17:51.843Z,98643.25
2023-03-07T04:18:55.941Z,98647.88
2023-03-07T04:19:58.426Z,98638.91
2023-03-07T04:21:02.697Z,98639.69
2023-03-07T04:22:05.003Z,98644.09
2023-03-07T04:23:07.316Z,98627.16
2023-03-07T04:24:10.506Z,98633.19
2023-03-07T04:25:12.975Z,98635.06
2023-03-07T04:26:16.282Z,98634.25
2023-03-07T04:27:18.597Z,98629.88
2023-03-07T04:28:21.272Z,98632.59
2023-03-07T04:29:23.593Z,98631.78
2023-03-07T04:30:29.944Z,98622.56
2023-03-07T04:31:32.315Z,98625.28
2023-03-07T04:32:37.039Z,98619.84
2023-03-07T04:33:40.357Z,98617.13
2023-03-07T04:34:42.560Z,98612.75
2023-03-07T04:35:46.166Z,98626.09
2023-03-07T04:36:48.585Z,98628.00
2023-03-07T04:37:50.861Z,98613.56
2023-03-07T04:38:54.446Z,98614.66
2023-03-07T04:39:56.621Z,98611.06
2023-03-07T04:40:59.115Z,98618.19
2023-03-07T04:42:01.410Z,98615.72
2023-03-07T04:43:09.521Z,98606.69
2023-03-07T04:44:11.720Z,98604.56
2023-03-07T04:45:13.893Z,98599.13
2023-03-07T04:46:17.278Z,98597.22
2023-03-07T04:47:20.724Z,98600.78
2023-03-07T04:48:22.989Z,98598.06
2023-03-07T04:49:26.266Z,98590.72
2023-03-07T04:50:29.874Z,98596.16
2023-03-07T04:51:32.415Z,98594.25
2023-03-07T04:52:34.796Z,98588.81
2023-03-07T04:53:37.056Z,98594.25
2023-03-07T04:54:40.973Z,98586.94
2023-03-07T04:55:43.685Z,98588.59
2023-03-07T04:56:46.801Z,98583.13
2023-03-07T04:57:49.576Z,98575.78
2023-03-07T04:58:52.125Z,98581.22
2023-03-07T04:59:54.362Z,98577.69
2023-03-07T05:00:58.711Z,98581.81
2023-03-07T05:02:02.220Z,98577.44
2023-03-07T05:03:07.810Z,98577.44
2023-03-07T05:04:10.087Z,98576.59
2023-03-07T05:05:13.969Z,98570.09
2023-03-07T05:06:17.662Z,98572.81
2023-03-07T05:07:25.090Z,98575.28
2023-03-07T05:08:27.416Z,98583.44
2023-03-07T05:09:30.430Z,98572.56
2023-03-07T05:10:35.484Z,98573.41
2023-03-07T05:11:38.906Z,98575.88
2023-03-07T05:12:44.084Z,98578.59
2023-03-07T05:13:47.254Z,98563.06
2023-03-07T05:14:52.847Z,98564.72
2023-03-07T05:15:56.728Z,98568.31
2023-03-07T05:16:59.481Z,98566.38
2023-03-07T05:18:01.680Z,98569.72
2023-03-07T05:19:06.183Z,98569.72
2023-03-07T05:20:10.990Z,98573.25
2023-03-07T05:21:13.241Z,98568.63
2023-03-07T05:22:15.639Z,98567.78
2023-03-07T05:23:19.505Z,98573.84
2023-03-07T05:24:23.786Z,98563.75
2023-03-07T05:25:26.090Z,98555.84
2023-03-07T05:26:28.657Z,98559.13
2023-03-07T05:27:30.995Z,98559.97
2023-03-07T05:28:34.510Z,98558.91
2023-03-07T05:29:36.846Z,98560.53
2023-03-07T05:30:39.101Z,98562.19
2023-03-07T05:31:41.287Z,98552.94
2023-03-07T05:32:46.269Z,98560.31
2023-03-07T05:33:49.868Z,98559.22
2023-03-07T05:34:52.728Z,98559.81
2023-03-07T05:36:00.248Z,98554.34
2023-03-07T05:37:03.474Z,98552.44
2023-03-07T05:38:06.513Z,98556.00
2023-03-07T05:39:09.132Z,98553.28
2023-03-07T05:40:12.172Z,98559.28
2023-03-07T05:41:18.063Z,98548.41
2023-03-07T05:42:20.245Z,98553.03
2023-03-07T05:43:23.671Z,98544.63
2023-03-07T05:44:27.431Z,98549.00
2023-03-07T05:45:31.372Z,98547.94
2023-03-07T05:46:35.593Z,98545.22
2023-03-07T05:47:39.185Z,98544.09
2023-03-07T05:48:43.687Z,98542.22
2023-03-07T05:49:45.867Z,98541.38
2023-03-07T05:50:48.724Z,98535.72
2023-03-07T05:51:52.684Z,98543.63
2023-03-07T05:52:56.069Z,98538.19
2023-03-07T05:54:01.401Z,98546.09
2023-03-07T05:55:04.994Z,98542.56
2023-03-07T05:56:08.649Z,98547.16
2023-03-07T05:57:12.232Z,98537.94
2023-03-07T05:58:15.886Z,98536.28
2023-03-07T05:59:20.762Z,98540.66
2023-03-07T06:00:25.732Z,98546.09
2023-03-07T06:01:32.115Z,98534.94
2023-03-07T06:02:34.464Z,98539.34
2023-03-07T06:03:36.758Z,98541.25
2023-03-07T06:04:38.941Z,98540.16
2023-03-07T06:05:41.811Z,98539.66
2023-03-07T06:06:46.206Z,98537.75
2023-03-07T06:07:50.060Z,98542.38
2023-03-07T06:08:52.269Z,98538.81
2023-03-07T06:09:54.542Z,98542.38
2023-03-07T06:10:56.809Z,98545.94
2023-03-07T06:12:00.001Z,98537.50
2023-03-07T06:13:02.320Z,98541.06
2023-03-07T06:14:04.914Z,98527.19
2023-03-07T06:15:09.038Z,98545.19
2023-03-07T06:16:12.000Z,98540.31
2023-03-07T06:17:16.303Z,98533.78
2023-03-07T06:18:20.164Z,98538.97
2023-03-07T06:19:22.455Z,98544.44
2023-03-07T06:20:27.085Z,98536.25
2023-03-07T06:21:32.087Z,98536.84
2023-03-07T06:22:37.873Z,98531.41
2023-03-07T06:23:40.230Z,98534.44
2023-03-07T06:24:47.025Z,98527.09
2023-03-07T06:25:49.256Z,98535.84
2023-03-07T06:26:52.577Z,98533.94
2023-03-07T06:28:00.996Z,98527.69
2023-03-07T06:29:05.240Z,98536.66
2023-03-07T06:30:09.441Z,98539.13
2023-03-07T06:31:14.870Z,98531.81
2023-03-07T06:32:17.465Z,98538.06
2023-03-07T06:33:19.764Z,98541.59
2023-03-07T06:34:22.005Z,98535.94
2023-03-07T06:35:24.278Z,98543.00
2023-03-07T06:36:27.017Z,98538.16
2023-03-07T06:37:36.258Z,98539.81
2023-03-07T06:38:40.785Z,98535.16
2023-03-07T06:39:43.461Z,98527.00
2023-03-07T06:40:55.134Z,98530.53
2023-03-07T06:41:57.276Z,98535.97
2023-03-07T06:42:59.472Z,98550.19
2023-03-07T06:44:01.910Z,98538.47
2023-03-07T06:45:07.526Z,98537.63
2023-03-07T06:46:10.353Z,98540.94
2023-03-07T06:47:15.989Z,98542.34
2023-03-07T06:48:18.464Z,98529.53
2023-03-07T06:49:20.760Z,98544.81
2023-03-07T06:50:34.684Z,98542.91
2023-03-07T06:51:38.242Z,98539.34
2023-03-07T06:52:42.517Z,98535.31
2023-03-07T06:53:45.000Z,98539.44
2023-03-07T06:54:47.243Z,98541.34
2023-03-07T06:55:50.700Z,98539.44
2023-03-07T06:56:53.047Z,98534.78
2023-03-07T06:57:57.989Z,98536.44
2023-03-07T06:59:00.936Z,98533.47
2023-03-07T07:00:05.763Z,98539.50
2023-03-07T07:01:15.999Z,98527.53
2023-03-07T07:02:18.333Z,98539.84
2023-03-07T07:03:22.009Z,98539.00
2023-03-07T07:04:24.169Z,98534.13
2023-03-07T07:05:29.713Z,98531.41
2023-03-07T07:06:31.959Z,98530.06
2023-03-07T07:07:35.139Z,98529.81
2023-03-07T07:08:38.306Z,98521.38
2023-03-07T07:09:40.683Z,98523.84
2023-03-07T07:10:44.117Z,98524.69
2023-03-07T07:11:46.390Z,98517.31
2023-03-07T07:12:49.761Z,98526.34
2023-03-07T07:13:52.211Z,98531.28
2023-03-07T07:14:55.786Z,98526.41
2023-03-07T07:16:05.091Z,98533.25
2023-03-07T07:17:07.417Z,98527.53
2023-03-07T07:18:14.044Z,98520.19
2023-03-07T07:19:17.558Z,98528.94
2023-03-07T07:20:19.832Z,98533.09
2023-03-07T07:21:22.046Z,98536.63
2023-03-07T07:22:24.658Z,98538.28
2023-03-07T07:23:27.303Z,98533.38
2023-03-07T07:24:31.381Z,98525.78
2023-03-07T07:25:34.349Z,98522.00
2023-03-07T07:26:38.441Z,98531.56
2023-03-07T07:27:41.017Z,98519.59
2023-03-07T07:28:43.232Z,98523.13
2023-03-07T07:29:45.584Z,98528.91
2023-03-07T07:30:49.055Z,98524.25
2023-03-07T07:31:51.696Z,98531.09
2023-03-07T07:32:55.394Z,98528.38
2023-03-07T07:33:58.341Z,98516.97
2023-03-07T07:35:03.019Z,98531.16
2023-03-07T07:36:07.518Z,98529.81
2023-03-07T07:37:12.381Z,98523.31
2023-03-07T07:38:15.765Z,98526.59
2023-03-07T07:39:18.330Z,98528.22
2023-03-07T07:40:22.540Z,98523.34
2023-03-07T07:41:25.108Z,98531.28
2023-03-07T07:42:32.090Z,98524.75
2023-03-07T07:43:48.443Z,98536.22
2023-03-07T07:45:00.069Z,98530.25
2023-03-07T07:46:05.520Z,98538.19
2023-03-07T07:47:07.976Z,98528.94
2023-03-07T07:48:10.361Z,98528.41
2023-03-07T07:49:13.234Z,98534.69
2023-03-07T07:50:20.162Z,98536.06
2023-03-07T07:51:22.511Z,98531.44
2023-03-07T07:52:24.829Z,98526.81
2023-03-07T07:53:27.046Z,98531.19
2023-03-07T07:54:29.265Z,98520.00
2023-03-07T07:55:31.558Z,98504.47
2023-03-07T07:56:36.030Z,98524.38
2023-03-07T07:57:38.167Z,98526.84
2023-03-07T07:58:40.866Z,98516.53
2023-03-07T07:59:43.060Z,98528.25
2023-03-07T08:00:46.937Z,98530.44
2023-03-07T08:01:51.118Z,98506.41
2023-03-07T08:02:53.375Z,98508.66
2023-03-07T08:03:55.720Z,98520.63
2023-03-07T08:04:58.175Z,98513.84
2023-03-07T08:06:00.352Z,98514.66
2023-03-07T08:07:05.504Z,98521.50
2023-03-07T08:08:07.690Z,98521.25
2023-03-07T08:09:10.490Z,98522.09
2023-03-07T08:10:17.070Z,98516.09
2023-03-07T08:11:21.014Z,98525.34
2023-03-07T08:12:23.330Z,98514.44
2023-03-07T08:13:25.531Z,98519.63
2023-03-07T08:14:27.780Z,98515.56
2023-03-07T08:15:30.413Z,98509.03
2023-03-07T08:16:32.701Z,98516.94
2023-03-07T08:17:34.865Z,98520.53
2023-03-07T08:18:37.126Z,98515.88
2023-03-07T08:19:39.659Z,98515.59
2023-03-07T08:20:41.818Z,98515.38
2023-03-07T08:21:45.372Z,98509.66
2023-03-07T08:22:49.550Z,98506.38
2023-03-07T08:23:53.155Z,98509.69
2023-03-07T08:24:55.291Z,98505.31
2023-03-07T08:26:04.237Z,98515.69
2023-03-07T08:27:07.507Z,98508.09
2023-03-07T08:28:10.076Z,98513.03
2023-03-07T08:29:13.477Z,98511.69
2023-03-07T08:30:16.124Z,98514.13
2023-03-07T08:31:23.779Z,98503.78
2023-03-07T08:32:26.639Z,98506.25
2023-03-07T08:33:28.807Z,98512.28
2023-03-07T08:34:34.248Z,98505.50
2023-03-07T08:35:40.173Z,98506.88
2023-03-07T08:36:42.481Z,98499.50
2023-03-07T08:37:45.241Z,98511.81
2023-03-07T08:38:52.016Z,98497.34
2023-03-07T08:39:55.307Z,98499.53
2023-03-07T08:41:02.327Z,98507.19
2023-03-07T08:42:04.813Z,98493.03
2023-03-07T08:43:07.053Z,98503.94
2023-03-07T08:44:09.241Z,98503.16
2023-03-07T08:45:11.869Z,98503.72
2023-03-07T08:46:15.535Z,98500.72
2023-03-07T08:47:17.720Z,98505.69
2023-03-07T08:48:20.936Z,98508.13
2023-03-07T08:49:23.203Z,98506.22
2023-03-07T08:50:28.580Z,98502.13
2023-03-07T08:51:30.786Z,98509.53
2023-03-07T08:52:34.389Z,98497.47
2023-03-07T08:53:37.400Z,98504.59
2023-03-07T08:54:41.002Z,98503.53
2023-03-07T08:55:46.579Z,98494.25
2023-03-07T08:56:48.769Z,98500.53
2023-03-07T08:57:51.254Z,98508.22
2023-03-07T08:58:56.662Z,98514.47
2023-03-07T08:59:58.842Z,98505.22
2023-03-07T09:01:01.154Z,98511.50
2023-03-07T09:02:04.087Z,98514.53
2023-03-07T09:03:07.596Z,98509.06
2023-03-07T09:04:09.777Z,98518.91
2023-03-07T09:05:12.010Z,98515.09
2023-03-07T09:06:20.301Z,98519.44
2023-03-07T09:07:22.654Z,98505.53
2023-03-07T09:08:25.109Z,98505.78
2023-03-07T09:09:30.262Z,98507.16
2023-03-07T09:10:32.771Z,98511.56
2023-03-07T09:11:36.132Z,98521.13
2023-03-07T09:12:38.294Z,98512.13
2023-03-07T09:13:51.459Z,98509.38
2023-03-07T09:14:55.182Z,98499.84
2023-03-07T09:15:57.480Z,98504.47
2023-03-07T09:16:59.660Z,98506.91
2023-03-07T09:18:01.923Z,98514.03
2023-03-07T09:19:04.653Z,98502.84
2023-03-07T09:20:10.626Z,98502.03
2023-03-07T09:21:14.583Z,98511.03
2023-03-07T09:22:17.109Z,98497.38
2023-03-07T09:23:20.597Z,98502.59
2023-03-07T09:24:22.744Z,98487.81
2023-03-07T09:25:24.977Z,98482.34
2023-03-07T09:26:27.220Z,98490.31
2023-03-07T09:27:29.504Z,98495.22
2023-03-07T09:28:32.350Z,98485.94
2023-03-07T09:29:34.521Z,98495.81
2023-03-07T09:30:38.840Z,98497.19
2023-03-07T09:31:41.657Z,98494.19
2023-03-07T09:32:43.982Z,98487.63
2023-03-07T09:33:47.080Z,98481.03
2023-03-07T09:34:49.610Z,98481.88
2023-03-07T09:35:51.819Z,98483.00
2023-03-07T09:36:54.077Z,98479.16
2023-03-07T09:37:56.374Z,98481.63
2023-03-07T09:38:58.527Z,98476.69
2023-03-07T09:40:01.028Z,98476.47
2023-03-07T09:41:18.139Z,98472.09
2023-03-07T09:43:03.575Z,98477.00
2023-03-07T09:44:41.980Z,98474.31
2023-03-07T09:46:13.062Z,98462.56
2023-03-07T09:47:45.971Z,98463.94
2023-03-07T09:49:20.094Z,98466.94
2023-03-07T09:50:45.929Z,98458.47
2023-03-07T09:51:58.273Z,98467.22
2023-03-07T09:53:04.376Z,98463.41
2023-03-07T09:54:13.716Z,98458.75
2023-03-07T09:55:19.202Z,98458.50
2023-03-07T09:56:30.234Z,98461.78
2023-03-07T09:57:35.613Z,98466.44
2023-03-07T09:58:43.472Z,98458.50
2023-03-07T10:00:09.894Z,98440.69
2023-03-07T10:01:18.458Z,98463.44
2023-03-07T10:02:44.219Z,98460.41
2023-03-07T10:04:12.668Z,98441.81
2023-03-07T10:05:30.557Z,98438.81
2023-03-07T10:06:39.032Z,98441.81
2023-03-07T10:07:41.934Z,98452.22
2023-03-07T10:08:44.477Z,98462.09
2023-03-07T10:09:46.813Z,98459.06
2023-03-07T10:11:04.215Z,98457.69
2023-03-07T10:12:21.832Z,98453.88
2023-03-07T10:14:01.181Z,98458.81
2023-03-07T10:15:25.433Z,98450.31
2023-03-07T10:17:09.042Z,98442.94
2023-03-07T10:18:49.120Z,98445.44
2023-03-07T10:20:00.665Z,98439.97
2023-03-07T10:21:14.759Z,98453.38
2023-03-07T10:22:27.459Z,98438.31
2023-03-07T10:23:45.766Z,98458.03
2023-03-07T10:25:11.129Z,98447.63
2023-03-07T10:26:23.360Z,98452.56
2023-03-07T10:27:28.871Z,98443.25
2023-03-07T10:28:42.676Z,98450.66
2023-03-07T10:29:50.925Z,98451.75
2023-03-07T10:30:59.991Z,98438.84
2023-03-07T10:32:29.829Z,98434.50
2023-03-07T10:33:32.333Z,98439.41
2023-03-07T10:34:37.364Z,98425.72
2023-03-07T10:35:42.971Z,98435.59
2023-03-07T10:36:51.565Z,98413.69
2023-03-07T10:38:03.433Z,98430.38
2023-03-07T10:39:38.224Z,98432.56
2023-03-07T10:40:54.989Z,98428.44
2023-03-07T10:41:57.677Z,98435.31
2023-03-07T10:43:00.166Z,98428.44
2023-03-07T10:44:02.425Z,98421.03
2023-03-07T10:45:05.029Z,98422.69
2023-03-07T10:46:26.855Z,98424.88
2023-03-07T10:47:30.366Z,98426.22
2023-03-07T10:48:33.437Z,98415.53
2023-03-07T10:49:45.260Z,98411.16
2023-03-07T10:51:06.262Z,98410.91
2023-03-07T10:52:26.545Z,98413.63
2023-03-07T10:53:34.204Z,98377.44
2023-03-07T10:54:38.660Z,98403.75
2023-03-07T10:55:45.202Z,98405.13
2023-03-07T10:57:04.070Z,98384.56
2023-03-07T10:58:28.652Z,98398.78
2023-03-07T10:59:30.918Z,98402.59
2023-03-07T11:00:33.237Z,98396.59
2023-03-07T11:01:38.240Z,98390.00
2023-03-07T11:02:47.675Z,98390.53
2023-03-07T11:04:00.658Z,98374.09
2023-03-07T11:05:18.243Z,98372.41
2023-03-07T11:06:54.325Z,98383.13
2023-03-07T11:07:56.980Z,98374.06
2023-03-07T11:09:24.052Z,98376.22
2023-03-07T11:10:39.680Z,98377.31
2023-03-07T11:11:48.197Z,98364.97
2023-03-07T11:12:50.529Z,98365.50
2023-03-07T11:14:15.013Z,98377.53
2023-03-07T11:15:24.600Z,98354.22
2023-03-07T11:16:27.158Z,98360.25
2023-03-07T11:17:46.921Z,98354.19
2023-03-07T11:18:49.366Z,98359.13
2023-03-07T11:19:55.793Z,98352.25
2023-03-07T11:20:59.757Z,98324.25
2023-03-07T11:22:05.377Z,98357.47
2023-03-07T11:23:14.781Z,98353.34
2023-03-07T11:24:25.224Z,98349.50
2023-03-07T11:25:27.489Z,98358.78
2023-03-07T11:26:33.604Z,98358.50
2023-03-07T11:27:47.299Z,98345.34
2023-03-07T11:29:04.719Z,98349.69
2023-03-07T11:30:12.345Z,98348.03
2023-03-07T11:31:35.452Z,98348.56
2023-03-07T11:32:43.388Z,98353.75
2023-03-07T11:34:03.949Z,98347.72
2023-03-07T11:35:15.963Z,98347.44
2023-03-07T11:36:32.537Z,98343.59
2023-03-07T11:37:48.855Z,98348.25
2023-03-07T11:39:37.535Z,98346.34
2023-03-07T11:40:49.696Z,98345.22
2023-03-07T11:42:04.561Z,98349.88
2023-03-07T11:43:41.600Z,98332.88
2023-03-07T11:44:53.968Z,98352.09
2023-03-07T11:46:09.106Z,98348.53
2023-03-07T11:47:26.849Z,98341.66
2023-03-07T11:48:53.598Z,98354.28
2023-03-07T11:50:05.570Z,98338.38
2023-03-07T11:51:30.907Z,98342.50
2023-03-07T11:52:56.057Z,98346.38
2023-03-07T11:54:25.368Z,98335.09
2023-03-07T11:55:38.501Z,98331.81
2023-03-07T11:56:47.454Z,98338.16
2023-03-07T11:58:06.793Z,98333.50
2023-03-07T11:59:36.508Z,98331.28
2023-03-07T12:01:16.284Z,98331.28
2023-03-07T12:02:50.984Z,98317.28
2023-03-07T12:04:24.500Z,98327.44
2023-03-07T12:05:51.839Z,98324.97
2023-03-07T12:07:16.693Z,98328.56
2023-03-07T12:08:46.203Z,98316.22
2023-03-07T12:10:23.121Z,98320.06
2023-03-07T12:12:02.617Z,98319.50
2023-03-07T12:13:44.550Z,98324.47
2023-03-07T12:15:06.505Z,98310.47
2023-03-07T12:16:25.763Z,98323.09
2023-03-07T12:17:56.920Z,98321.16
2023-03-07T12:19:12.846Z,98304.69
2023-03-07T12:20:22.214Z,98314.88
2023-03-07T12:22:12.251Z,98305.25
2023-03-07T12:23:39.237Z,98308.00
2023-03-07T12:24:56.125Z,98300.28
2023-03-07T12:26:02.468Z,98304.13
2023-03-07T12:27:14.470Z,98302.22
2023-03-07T12:28:19.403Z,98299.97
2023-03-07T12:29:41.870Z,98313.44
2023-03-07T12:30:59.520Z,98290.94
2023-03-07T12:32:07.165Z,98298.88
2023-03-07T12:33:17.676Z,98307.13
2023-03-07T12:34:32.130Z,98313.44
2023-03-07T12:35:45.537Z,98306.56
2023-03-07T12:36:55.300Z,98298.03
2023-03-07T12:38:07.992Z,98300.50
2023-03-07T12:39:30.088Z,98294.19
2023-03-07T12:40:42.500Z,98303.78
2023-03-07T12:42:05.741Z,98293.63
2023-03-07T12:43:23.084Z,98290.56
2023-03-07T12:44:48.024Z,98281.25
2023-03-07T12:46:03.801Z,98287.28
2023-03-07T12:47:15.131Z,98281.50
2023-03-07T12:48:32.332Z,98251.00
2023-03-07T12:49:50.018Z,98272.44
2023-03-07T12:51:07.165Z,98271.03
2023-03-07T12:52:25.295Z,98275.44
2023-03-07T12:53:45.827Z,98279.53
2023-03-07T12:55:06.925Z,98275.69
2023-03-07T12:56:20.387Z,98279.47
2023-03-07T12:57:30.225Z,98279.47
2023-03-07T12:58:39.142Z,98279.19
2023-03-07T12:59:43.686Z,98290.41
2023-03-07T13:01:05.725Z,98270.91
2023-03-07T13:02:43.719Z,98283.25
2023-03-07T13:04:22.952Z,98282.94
2023-03-07T13:05:25.762Z,98275.25
2023-03-07T13:06:29.283Z,98284.88